Meteo Giornale » Osservazioni meteo Italia » Catania-Sigonella

ore: 06:55 - Osservazioni Meteo Catania-Sigonella
Lat. 37° 24' N Lon. 14° 55' E Alt. 22 metri s.l.m.

foschia Europe/Rome

10 °C

Foschia

Temp. 24 Ore

10 °C

23 °C

Sud/Sud-Ovest

7.4 Km/h

Dew point 10 °C

Umidità 100 %

Visibilità  5 Km

Il sole sorge alle ore 05:52

Il sole tramonta alle ore 18:19

Data e Ora Cielo e Fenomeni T °C DP °C Um. % Pres. hPa Vis. km Vento km/h
Oggi h: 06:55 foschia Foschia 10 10 100 1020 5 S/SO 7.4
Oggi h: 05:55 nuvoloso Nuvoloso 10 10 100 1019 7 NO 7.4
Oggi h: 04:55 sereno Sereno 10 10 100 1019 7 O/SO 7.4
Oggi h: 03:55 sereno Sereno 10 10 100 1019 10 N 3.7
Oggi h: 03:55 sereno Sereno 13 13 100 1019 10 O 9.3
Oggi h: 01:55 sereno Sereno 14 14 100 1020 10 NO 9.3
Oggi h: 00:55 sereno Sereno 14 14 100 1020 10 O 14.8
Ieri h: 23:55 sereno Sereno 13 13 100 1021 7 O/NO 7.4
Ieri h: 22:55 sereno Sereno 13 13 100 1021 6 O 9.3
Ieri h: 21:55 sereno Sereno 13 13 100 1021 10 N 3.7
Ieri h: 20:55 sereno Sereno 13 13 100 1020 10 S/SO 7.4
Ieri h: 19:55 sereno Sereno 14 14 100 1020 10 SE 7.4
Ieri h: 18:55 sereno Sereno 15 15 100 1020 10 E 9.3
Ieri h: 17:55 sereno Sereno 17 15 88 1019 10 NE 13
Ieri h: 16:55 sereno Sereno 19 14 72 1019 10 NE 14.8
Ieri h: 15:55 sereno Sereno 21 12 56 1019 10 E/NE 18.5
Ieri h: 14:55 sereno Sereno 22 12 53 1020 10 N 0
Ieri h: 13:55 sereno Sereno 23 12 49 1021 10 NE 16.7
Ieri h: 12:55 sereno Sereno 22 13 56 1022 10 E 13
Ieri h: 11:55 sereno Sereno 22 7 37 1023 10 N 5.5
Ieri h: 10:55 sereno Sereno 20 8 45 1023 10 N 5.5
Ieri h: 09:55 poco_nuvoloso Poco Nuvoloso 18 9 55 1023 8 N 5.5
Ieri h: 08:55 foschia Foschia 15 12 82 1023 4 O 7.4